Time;durP1;ratioP1;P1;durP2;ratioP2;P2;SDS_P1;SDS_P2;PMS_P1;PMS_P2;Temp;Humidity;BMP_temperature;BMP_pressure;BME280_temperature;BME280_humidity;BME280_pressure;Samples;Min_cycle;Max_cycle;Signal;HPM_P1;HPM_P2
2022/07/26 00:02:16;;;;;;;;;1.00;1.00;;;;;24.22;45.27;101392.31;5098262;27;45520;-72
2022/07/26 00:04:42;;;;;;;;;3.00;1.00;;;;;24.17;44.77;101395.44;5098404;27;45746;-71
2022/07/26 00:07:07;;;;;;;;;0.33;0.33;;;;;24.10;44.85;101399.72;5098153;27;45569;-72
2022/07/26 00:09:32;;;;;;;;;1.00;1.00;;;;;24.01;44.97;101390.53;5097944;27;45966;-71
2022/07/26 00:11:58;;;;;;;;;0.00;0.00;;;;;24.09;45.09;101397.13;5097203;27;45491;-72
2022/07/26 00:14:23;;;;;;;;;1.00;0.00;;;;;24.00;45.06;101391.53;5098176;27;45684;-72
2022/07/26 00:16:49;;;;;;;;;0.00;0.00;;;;;24.08;45.59;101401.72;5098067;27;45556;-71
2022/07/26 00:19:14;;;;;;;;;2.00;1.00;;;;;24.10;45.67;101402.47;5110059;27;46721;-72
2022/07/26 00:21:40;;;;;;;;;1.00;1.00;;;;;24.07;45.87;101400.03;5098003;27;45314;-72
2022/07/26 00:24:06;;;;;;;;;1.00;1.00;;;;;24.02;45.44;101403.16;5097726;27;45807;-72
2022/07/26 00:26:32;;;;;;;;;1.00;1.00;;;;;24.00;45.87;101407.88;5077657;27;45595;-71
2022/07/26 00:28:58;;;;;;;;;0.00;0.00;;;;;23.95;45.82;101409.28;5097681;27;45543;-71
2022/07/26 00:31:23;;;;;;;;;1.00;0.00;;;;;23.91;45.64;101405.13;5097916;27;45687;-72
2022/07/26 00:33:49;;;;;;;;;0.67;0.67;;;;;23.88;45.99;101411.72;5096924;27;45725;-72
2022/07/26 00:36:14;;;;;;;;;0.00;0.00;;;;;23.85;46.43;101411.09;5097904;27;45551;-72
2022/07/26 00:38:39;;;;;;;;;1.00;1.00;;;;;23.71;46.24;101394.09;5079245;27;47300;-71
2022/07/26 00:41:05;;;;;;;;;0.00;0.00;;;;;23.79;46.34;101415.25;5097528;27;45543;-72
2022/07/26 00:43:31;;;;;;;;;0.00;0.00;;;;;23.76;46.45;101410.94;5097793;27;45475;-71
2022/07/26 00:45:56;;;;;;;;;0.33;0.33;;;;;23.75;46.53;101411.94;5098006;27;45430;-71
2022/07/26 00:48:22;;;;;;;;;1.00;1.00;;;;;23.74;46.35;101410.22;5078806;27;46487;-71
2022/07/26 00:50:48;;;;;;;;;1.67;1.33;;;;;23.71;46.47;101399.56;5097475;27;45391;-71
2022/07/26 00:53:13;;;;;;;;;0.00;0.00;;;;;23.69;46.54;101408.84;5094651;27;45533;-72
2022/07/26 00:55:38;;;;;;;;;3.00;1.00;;;;;23.64;46.13;101403.81;5094910;27;45562;-72
2022/07/26 00:58:05;;;;;;;;;1.00;1.00;;;;;23.59;46.19;101393.34;5095270;27;45935;-72
2022/07/26 01:00:31;;;;;;;;;1.00;1.00;;;;;23.59;46.43;101400.66;5094982;27;45613;-72
2022/07/26 01:02:59;;;;;;;;;0.00;0.00;;;;;23.57;46.15;101400.78;5097078;27;45487;-72
2022/07/26 01:05:25;;;;;;;;;0.67;0.67;;;;;23.56;46.57;101392.75;5097477;27;45458;-72
2022/07/26 01:07:52;;;;;;;;;0.67;0.00;;;;;23.53;46.53;101395.72;5096659;27;46391;-72
2022/07/26 01:10:18;;;;;;;;;0.00;0.00;;;;;23.49;46.17;101394.31;5096728;27;45648;-71
2022/07/26 01:12:44;;;;;;;;;0.67;0.67;;;;;23.45;46.29;101393.69;5097544;27;45632;-70
2022/07/26 01:15:12;;;;;;;;;0.33;0.33;;;;;23.29;46.67;101372.41;5097441;27;45370;-70
2022/07/26 01:17:38;;;;;;;;;0.00;0.00;;;;;23.45;46.32;101390.13;5097157;27;46507;-70
2022/07/26 01:20:05;;;;;;;;;0.00;0.00;;;;;23.36;46.94;101387.19;5099689;27;45484;-70
2022/07/26 01:22:31;;;;;;;;;0.67;0.67;;;;;23.39;46.39;101383.38;5080352;27;45537;-69
2022/07/26 01:24:56;;;;;;;;;0.00;0.00;;;;;23.38;46.87;101392.50;5094252;27;45901;-70
2022/07/26 01:27:21;;;;;;;;;0.00;0.00;;;;;23.35;46.66;101395.50;5092065;27;45428;-70
2022/07/26 01:29:48;;;;;;;;;0.00;0.00;;;;;23.33;46.49;101392.06;5096558;27;45467;-70
2022/07/26 01:32:13;;;;;;;;;0.00;0.00;;;;;23.24;46.68;101376.53;5092727;27;45643;-72
2022/07/26 01:34:38;;;;;;;;;0.00;0.00;;;;;23.30;46.95;101393.19;5096222;27;45457;-70
2022/07/26 01:37:04;;;;;;;;;0.67;0.33;;;;;23.08;46.81;101350.66;5095309;27;46462;-72
2022/07/26 01:39:30;;;;;;;;;1.00;1.00;;;;;23.35;46.63;101392.78;5096853;27;45568;-72
2022/07/26 01:41:55;;;;;;;;;0.00;0.00;;;;;23.29;46.63;101386.00;5095737;27;45347;-72
2022/07/26 01:44:22;;;;;;;;;1.00;0.00;;;;;23.21;46.81;101372.22;5097152;27;45777;-71
2022/07/26 01:46:47;;;;;;;;;0.67;0.67;;;;;23.15;47.24;101381.78;5094576;27;47437;-72
2022/07/26 01:49:13;;;;;;;;;1.00;0.00;;;;;23.18;47.13;101388.81;5096451;27;45442;-72
2022/07/26 01:51:38;;;;;;;;;0.67;0.00;;;;;23.11;47.17;101377.63;5080059;27;45478;-72
2022/07/26 01:54:04;;;;;;;;;1.67;0.67;;;;;23.13;47.49;101389.22;5096418;27;46036;-72
2022/07/26 01:56:29;;;;;;;;;0.00;0.00;;;;;23.14;46.95;101393.66;5093704;27;45527;-72
2022/07/26 01:58:54;;;;;;;;;1.00;1.00;;;;;23.11;47.41;101387.63;5095423;27;46145;-71
2022/07/26 02:01:20;;;;;;;;;0.00;0.00;;;;;23.08;47.57;101391.47;5093464;27;45612;-72
2022/07/26 02:03:45;;;;;;;;;0.00;0.00;;;;;23.08;47.57;101393.31;5096374;27;45799;-71
2022/07/26 02:06:10;;;;;;;;;1.00;1.00;;;;;23.07;47.52;101394.34;5096500;27;45527;-72
2022/07/26 02:08:36;;;;;;;;;1.00;1.00;;;;;23.07;47.94;101391.63;5095957;27;45491;-71
2022/07/26 02:11:05;;;;;;;;;0.00;0.00;;;;;23.01;47.92;101382.09;5096463;27;45614;-72
2022/07/26 02:13:36;;;;;;;;;0.00;0.00;;;;;23.05;47.66;101396.31;5077988;27;45593;-74
2022/07/26 02:16:03;;;;;;;;;0.33;0.33;;;;;22.96;47.97;101387.06;5095909;27;45445;-74
2022/07/26 02:18:29;;;;;;;;;0.00;0.00;;;;;23.02;48.05;101400.16;5101988;27;45663;-73
2022/07/26 02:21:10;;;;;;;;;0.33;0.33;;;;;23.00;47.74;101402.16;5013227;28;45529;-73
2022/07/26 02:23:36;;;;;;;;;0.00;0.00;;;;;22.99;47.82;101403.13;4996816;28;45561;-74
2022/07/26 02:26:01;;;;;;;;;0.00;0.00;;;;;22.93;47.81;101395.47;5012829;28;46106;-73
2022/07/26 02:28:27;;;;;;;;;2.33;0.33;;;;;22.91;48.46;101394.75;5012980;28;45562;-74
2022/07/26 02:30:52;;;;;;;;;1.00;0.00;;;;;22.88;48.14;101393.16;5013018;28;45506;-73
2022/07/26 02:33:18;;;;;;;;;2.00;0.00;;;;;22.84;48.26;101397.13;5012789;28;45875;-73
2022/07/26 02:35:45;;;;;;;;;2.00;1.00;;;;;22.78;48.84;101392.22;5008598;28;45549;-73
2022/07/26 02:38:12;;;;;;;;;1.00;1.00;;;;;22.79;48.78;101393.94;5030314;28;45524;-74
2022/07/26 02:40:39;;;;;;;;;1.00;0.00;;;;;22.75;49.08;101393.31;5027932;28;45419;-74
2022/07/26 02:43:07;;;;;;;;;2.33;0.67;;;;;22.65;49.38;101389.66;5013369;28;45630;-73
2022/07/26 02:45:33;;;;;;;;;0.00;0.00;;;;;22.68;49.21;101391.25;5001624;28;46041;-74
2022/07/26 02:47:59;;;;;;;;;0.00;0.00;;;;;22.63;48.82;101390.78;5012571;28;45964;-73
2022/07/26 02:50:26;;;;;;;;;0.00;0.00;;;;;22.69;49.03;101403.88;5012665;28;45558;-73
2022/07/26 02:52:52;;;;;;;;;0.00;0.00;;;;;22.67;49.49;101404.00;5020489;28;45509;-74
2022/07/26 02:55:20;;;;;;;;;1.00;1.00;;;;;22.64;49.12;101404.25;5017367;28;46677;-73
2022/07/26 02:57:46;;;;;;;;;0.00;0.00;;;;;22.63;49.55;101401.66;5034548;27;45471;-74
2022/07/26 03:00:14;;;;;;;;;0.00;0.00;;;;;22.60;49.90;101404.66;5083417;27;45731;-74
2022/07/26 03:02:40;;;;;;;;;0.00;0.00;;;;;22.56;49.46;101406.75;5087294;27;45520;-74
2022/07/26 03:05:06;;;;;;;;;0.00;0.00;;;;;22.53;49.76;101394.28;5085266;27;47053;-73
2022/07/26 03:07:32;;;;;;;;;2.00;1.00;;;;;22.47;50.22;101391.22;5088490;27;45403;-73
2022/07/26 03:09:58;;;;;;;;;1.00;0.00;;;;;22.50;50.53;101405.41;5095848;27;45513;-74
2022/07/26 03:12:24;;;;;;;;;0.00;0.00;;;;;22.47;50.56;101408.38;5095743;27;45524;-74
2022/07/26 03:14:49;;;;;;;;;2.00;1.00;;;;;22.43;50.21;101400.59;5076298;27;46037;-72
2022/07/26 03:17:15;;;;;;;;;0.00;0.00;;;;;22.42;50.25;101404.31;5082736;27;45484;-74
2022/07/26 03:19:40;;;;;;;;;0.00;0.00;;;;;22.42;50.84;101415.19;5087059;27;45567;-74
2022/07/26 03:22:05;;;;;;;;;1.33;1.00;;;;;22.41;50.47;101405.34;5088348;27;45658;-73
2022/07/26 03:24:31;;;;;;;;;0.00;0.00;;;;;22.43;50.90;101404.22;5082455;27;45914;-74
2022/07/26 03:26:56;;;;;;;;;2.33;0.00;;;;;22.44;51.00;101407.78;5082626;27;45702;-73
2022/07/26 03:29:21;;;;;;;;;1.67;1.00;;;;;22.40;50.75;101404.44;5080529;27;45510;-73
2022/07/26 03:31:47;;;;;;;;;2.00;0.00;;;;;22.45;50.69;101409.50;5078614;27;45916;-73
2022/07/26 03:34:12;;;;;;;;;0.00;0.00;;;;;22.44;50.74;101407.78;5092927;27;46161;-74
2022/07/26 03:36:39;;;;;;;;;0.00;0.00;;;;;22.40;50.81;101409.88;5085073;27;45429;-74
2022/07/26 03:39:04;;;;;;;;;0.00;0.00;;;;;22.38;51.30;101413.72;5090141;27;45458;-74
2022/07/26 03:41:32;;;;;;;;;0.00;0.00;;;;;22.36;51.14;101408.44;5084541;27;45712;-74
2022/07/26 03:43:57;;;;;;;;;1.00;1.00;;;;;22.30;51.47;101412.50;5092791;27;46298;-73
2022/07/26 03:46:23;;;;;;;;;1.00;1.00;;;;;22.36;51.05;101413.88;5074706;27;45442;-74
2022/07/26 03:48:48;;;;;;;;;0.00;0.00;;;;;22.36;51.27;101415.69;5092034;27;45464;-74
2022/07/26 03:51:13;;;;;;;;;1.00;1.00;;;;;22.34;51.18;101424.84;5078383;27;45750;-74
2022/07/26 03:53:39;;;;;;;;;0.00;0.00;;;;;22.38;51.68;101421.88;5077853;27;46492;-74
2022/07/26 03:58:49;;;;;;;;;0.00;0.00;;;;;22.28;51.56;101413.63;5079486;27;45477;-73
2022/07/26 04:01:14;;;;;;;;;0.33;0.33;;;;;22.36;51.20;101418.41;5088405;27;45454;-73
2022/07/26 04:03:39;;;;;;;;;1.00;1.00;;;;;22.35;51.44;101414.84;5078097;27;45483;-74
2022/07/26 04:06:05;;;;;;;;;1.67;0.67;;;;;22.34;51.40;101416.69;5078120;27;45452;-72
2022/07/26 04:08:30;;;;;;;;;1.00;1.00;;;;;22.31;51.49;101419.69;5079352;27;45630;-73
2022/07/26 04:10:56;;;;;;;;;1.00;0.00;;;;;22.33;52.04;101419.53;5078179;27;45513;-74
2022/07/26 04:13:22;;;;;;;;;0.00;0.00;;;;;22.37;51.59;101422.88;5080959;27;46111;-72
2022/07/26 04:15:48;;;;;;;;;0.00;0.00;;;;;22.35;52.14;101428.41;5061408;28;45497;-72
2022/07/26 04:18:14;;;;;;;;;2.00;2.00;;;;;22.30;51.81;101417.06;5077863;27;45530;-72
2022/07/26 04:20:40;;;;;;;;;0.67;0.67;;;;;22.36;52.15;101429.28;5059984;27;45612;-72
2022/07/26 04:23:06;;;;;;;;;0.67;0.67;;;;;22.38;52.01;101430.00;5059073;27;46356;-72
2022/07/26 04:25:33;;;;;;;;;0.33;0.33;;;;;22.33;52.25;101420.38;5077659;27;45383;-72
2022/07/26 04:27:59;;;;;;;;;1.67;0.67;;;;;22.38;52.18;101427.28;5092672;27;45511;-72
2022/07/26 04:30:24;;;;;;;;;0.00;0.00;;;;;22.40;52.30;101431.59;5096295;27;45513;-71
2022/07/26 04:32:50;;;;;;;;;0.00;0.00;;;;;22.40;52.41;101423.47;5079276;27;47280;-71
2022/07/26 04:35:15;;;;;;;;;0.00;0.00;;;;;22.42;51.84;101424.19;5091349;27;45574;-71
2022/07/26 04:37:42;;;;;;;;;0.00;0.00;;;;;22.44;52.02;101424.09;5094658;27;45725;-71
2022/07/26 04:40:08;;;;;;;;;1.67;1.00;;;;;22.36;52.40;101410.25;5077602;27;45851;-71
2022/07/26 04:42:35;;;;;;;;;3.33;0.00;;;;;22.48;52.26;101434.56;5071747;27;47492;-71
2022/07/26 04:45:02;;;;;;;;;0.00;0.00;;;;;22.48;52.00;101437.28;5097908;27;45641;-71
2022/07/26 04:47:27;;;;;;;;;0.00;0.00;;;;;22.50;52.50;101440.75;5081804;27;45502;-71
2022/07/26 04:49:52;;;;;;;;;0.00;0.00;;;;;22.49;51.98;101438.13;5094930;27;45336;-71
2022/07/26 04:52:18;;;;;;;;;2.33;1.00;;;;;22.55;52.74;101441.22;5087897;27;45934;-71
2022/07/26 04:54:43;;;;;;;;;0.00;0.00;;;;;22.53;51.97;101435.03;5077242;27;45426;-71
2022/07/26 04:57:08;;;;;;;;;0.67;0.33;;;;;22.64;52.21;101445.03;5068965;27;45466;-72
2022/07/26 04:59:34;;;;;;;;;0.00;0.00;;;;;22.71;52.23;101442.63;5089503;27;45429;-71
2022/07/26 05:01:59;;;;;;;;;0.33;0.33;;;;;22.71;51.88;101443.53;5062489;27;45448;-71
2022/07/26 05:04:25;;;;;;;;;1.33;1.00;;;;;22.65;52.43;101441.31;5082239;27;45393;-71
2022/07/26 05:06:50;;;;;;;;;0.00;0.00;;;;;22.72;51.96;101452.53;5079516;27;45448;-71
2022/07/26 05:09:15;;;;;;;;;1.00;0.00;;;;;22.75;51.70;101453.13;5087689;27;45412;-71
2022/07/26 05:11:41;;;;;;;;;0.00;0.00;;;;;22.71;51.72;101445.34;5084384;27;45918;-71
2022/07/26 05:14:06;;;;;;;;;1.00;1.00;;;;;22.64;51.61;101434.16;5059029;27;45630;-71
2022/07/26 05:16:31;;;;;;;;;1.00;1.00;;;;;22.76;52.27;101459.44;5075367;27;45608;-71
2022/07/26 05:18:57;;;;;;;;;0.67;0.67;;;;;22.78;52.01;101460.19;5058754;27;45454;-71
2022/07/26 05:21:22;;;;;;;;;2.00;2.00;;;;;22.82;52.55;101464.34;5079973;27;46168;-71
2022/07/26 05:23:48;;;;;;;;;2.67;1.00;;;;;22.76;52.22;101454.88;5078696;27;45476;-71
2022/07/26 05:26:13;;;;;;;;;0.00;0.00;;;;;22.83;52.19;101468.81;5087486;27;45797;-71
2022/07/26 05:28:39;;;;;;;;;1.00;1.00;;;;;22.74;51.72;101445.97;5076345;27;45492;-71
2022/07/26 05:31:04;;;;;;;;;1.67;1.00;;;;;22.87;51.89;101469.38;5076271;27;46047;-71
2022/07/26 05:33:30;;;;;;;;;0.00;0.00;;;;;22.84;51.92;101461.50;5076636;27;45523;-71
2022/07/26 05:35:55;;;;;;;;;4.00;2.33;;;;;22.81;52.31;101473.50;5076271;27;45380;-71
2022/07/26 05:38:20;;;;;;;;;2.33;1.00;;;;;22.81;52.05;101475.38;5079419;27;45451;-72
2022/07/26 05:40:46;;;;;;;;;0.33;0.33;;;;;22.78;52.10;101471.06;5083140;27;45388;-71
2022/07/26 05:43:11;;;;;;;;;1.00;1.00;;;;;22.83;51.95;101474.25;5076606;27;45446;-72
2022/07/26 05:45:36;;;;;;;;;0.50;0.50;;;;;22.86;52.03;101475.84;5096961;27;45426;-72
2022/07/26 05:48:02;;;;;;;;;0.00;0.00;;;;;22.92;52.17;101478.00;5076590;27;45543;-71
2022/07/26 05:50:27;;;;;;;;;1.00;1.00;;;;;22.95;52.31;101466.91;5075982;27;45461;-71
2022/07/26 05:52:53;;;;;;;;;1.00;1.00;;;;;22.90;51.95;101469.16;5087573;27;45442;-71
2022/07/26 05:55:18;;;;;;;;;1.00;1.00;;;;;22.92;52.11;101457.16;5096088;27;45409;-71
2022/07/26 05:57:46;;;;;;;;;1.00;1.00;;;;;22.95;51.65;101475.91;5088136;27;45741;-72
2022/07/26 06:00:13;;;;;;;;;1.67;1.00;;;;;22.92;51.92;101470.75;5076617;27;47407;-71
2022/07/26 06:02:39;;;;;;;;;2.00;1.00;;;;;22.94;51.54;101476.94;5076026;28;45573;-72
2022/07/26 06:05:05;;;;;;;;;0.33;0.33;;;;;23.03;51.69;101485.31;5064991;27;45476;-71
2022/07/26 06:07:31;;;;;;;;;2.33;2.33;;;;;22.94;52.01;101474.19;5082260;27;45489;-71
2022/07/26 06:09:56;;;;;;;;;2.00;2.00;;;;;22.91;51.61;101474.44;5082523;27;45595;-72
2022/07/26 06:12:21;;;;;;;;;2.33;1.00;;;;;22.93;51.77;101486.06;5085184;27;45757;-72
2022/07/26 06:14:47;;;;;;;;;0.33;0.33;;;;;22.89;52.10;101484.56;5092354;27;45502;-72
2022/07/26 06:17:12;;;;;;;;;1.00;1.00;;;;;22.67;52.62;101490.09;5092544;27;45347;-74
2022/07/26 06:19:37;;;;;;;;;1.00;1.00;;;;;22.39;53.44;101492.38;5085357;27;46223;-73
2022/07/26 06:22:03;;;;;;;;;0.00;0.00;;;;;22.25;54.35;101495.34;5064347;28;45443;-74
2022/07/26 06:24:28;;;;;;;;;1.00;1.00;;;;;22.09;54.57;101496.53;5077795;27;45544;-76
2022/07/26 06:26:55;;;;;;;;;2.67;1.00;;;;;22.01;55.25;101500.84;5094123;27;46123;-73
2022/07/26 06:29:21;;;;;;;;;2.00;2.00;;;;;21.85;55.28;101487.66;5085737;27;46115;-75
2022/07/26 06:31:47;;;;;;;;;2.00;0.00;;;;;21.84;56.07;101503.06;5086702;27;45404;-75
2022/07/26 06:34:12;;;;;;;;;0.67;0.67;;;;;21.74;55.67;101493.94;5093168;27;45371;-69
2022/07/26 06:36:37;;;;;;;;;3.00;3.00;;;;;21.75;56.16;101501.09;5090943;27;45940;-77
2022/07/26 06:39:03;;;;;;;;;2.00;2.00;;;;;21.71;56.14;101499.63;5075332;27;47238;-77
2022/07/26 06:41:28;;;;;;;;;3.67;2.00;;;;;21.61;56.14;101495.88;5088765;27;45482;-75
2022/07/26 06:43:54;;;;;;;;;1.00;1.00;;;;;21.63;56.89;101502.94;5099416;27;45412;-75
2022/07/26 06:46:19;;;;;;;;;1.33;1.33;;;;;21.69;56.74;101512.44;5090654;27;45424;-76
2022/07/26 06:48:45;;;;;;;;;1.00;1.00;;;;;21.67;57.11;101507.13;5079304;27;46286;-72
2022/07/26 06:51:11;;;;;;;;;1.33;1.33;;;;;21.68;56.83;101510.69;5083732;27;45497;-69
2022/07/26 06:53:36;;;;;;;;;1.00;1.00;;;;;21.75;56.22;101495.69;5092040;27;45387;-69
2022/07/26 06:56:02;;;;;;;;;1.00;1.00;;;;;21.85;56.05;101484.94;5086674;27;45604;-70
2022/07/26 06:58:27;;;;;;;;;1.67;0.33;;;;;22.01;55.84;101509.00;5090331;27;47068;-70
2022/07/26 07:00:53;;;;;;;;;1.00;1.00;;;;;22.08;55.99;101502.97;5081461;27;45477;-69
2022/07/26 07:03:18;;;;;;;;;5.67;2.33;;;;;22.17;56.47;101506.78;5088801;27;46534;-68
2022/07/26 07:05:44;;;;;;;;;1.00;1.00;;;;;22.24;55.26;101513.50;5091493;27;45375;-70
2022/07/26 07:08:09;;;;;;;;;1.00;1.00;;;;;22.18;56.06;101504.94;5087681;27;45536;-72
2022/07/26 07:10:35;;;;;;;;;4.33;2.00;;;;;22.29;55.94;101510.41;5075891;27;45560;-70
2022/07/26 07:13:00;;;;;;;;;2.67;1.33;;;;;22.37;55.26;101507.94;5077315;27;45764;-70
2022/07/26 07:15:26;;;;;;;;;1.33;1.33;;;;;22.45;55.40;101516.34;5089690;27;45584;-69
2022/07/26 07:17:51;;;;;;;;;1.67;1.67;;;;;22.54;55.23;101518.25;5087723;27;46475;-70
2022/07/26 07:20:16;;;;;;;;;0.33;0.33;;;;;22.60;55.03;101516.91;5086654;27;45543;-69
2022/07/26 07:22:42;;;;;;;;;0.67;0.67;;;;;22.70;54.80;101522.44;5085850;27;45437;-70
2022/07/26 07:25:07;;;;;;;;;2.67;2.00;;;;;22.75;54.23;101518.34;5080899;27;45512;-70
2022/07/26 07:27:33;;;;;;;;;1.00;1.00;;;;;22.63;54.55;101500.34;5093627;27;45804;-69
2022/07/26 07:29:58;;;;;;;;;1.67;1.00;;;;;22.79;54.13;101518.97;5088893;27;45564;-71
2022/07/26 07:32:23;;;;;;;;;2.33;2.00;;;;;22.88;54.28;101512.78;5070911;27;48293;-70
2022/07/26 07:34:49;;;;;;;;;3.00;1.00;;;;;23.03;53.78;101521.53;5082581;27;45485;-70
2022/07/26 07:37:16;;;;;;;;;1.00;1.00;;;;;23.12;53.55;101520.75;5080123;27;47101;-69
2022/07/26 07:39:41;;;;;;;;;1.33;1.33;;;;;23.21;53.03;101523.69;5091203;27;45492;-69
2022/07/26 07:42:07;;;;;;;;;1.33;1.33;;;;;23.24;52.58;101518.84;5071251;27;45845;-69
2022/07/26 07:44:32;;;;;;;;;1.33;1.00;;;;;23.33;52.21;101525.34;5098397;27;45827;-68
2022/07/26 07:46:57;;;;;;;;;2.00;1.00;;;;;23.35;52.64;101515.22;5082037;27;47920;-68
2022/07/26 07:49:23;;;;;;;;;2.00;1.33;;;;;23.41;52.47;101511.09;5096575;27;45455;-69
2022/07/26 07:51:48;;;;;;;;;1.00;0.00;;;;;23.49;51.84;101519.47;5088870;27;45465;-70
2022/07/26 07:54:14;;;;;;;;;2.33;2.33;;;;;23.47;52.00;101507.84;5090935;27;45662;-70
2022/07/26 07:56:41;;;;;;;;;1.00;1.00;;;;;23.59;51.90;101528.56;5066451;27;46129;-71
2022/07/26 07:59:06;;;;;;;;;2.67;2.67;;;;;23.66;51.30;101528.91;5086869;27;45603;-68
2022/07/26 08:01:32;;;;;;;;;2.00;2.00;;;;;23.66;51.39;101527.03;5090144;27;45440;-68
2022/07/26 08:03:57;;;;;;;;;2.00;2.00;;;;;23.70;50.78;101523.06;5089855;27;45496;-68
2022/07/26 08:06:22;;;;;;;;;3.00;1.00;;;;;23.66;51.09;101520.72;5093482;27;47139;-69
2022/07/26 08:08:48;;;;;;;;;0.33;0.33;;;;;23.72;50.68;101526.50;5078970;27;45561;-68
2022/07/26 08:11:13;;;;;;;;;1.00;1.00;;;;;23.75;50.69;101520.81;5088226;27;45508;-68
2022/07/26 08:13:38;;;;;;;;;1.00;1.00;;;;;23.86;50.41;101528.06;5078186;27;45455;-68
2022/07/26 08:16:04;;;;;;;;;1.00;1.00;;;;;23.89;50.29;101524.19;5048735;27;47207;-68
2022/07/26 08:18:29;;;;;;;;;1.00;1.00;;;;;23.92;50.74;101523.91;5085883;27;45411;-69
2022/07/26 08:20:54;;;;;;;;;1.00;1.00;;;;;23.96;50.61;101528.09;5081540;27;45832;-68
2022/07/26 08:23:20;;;;;;;;;1.67;1.67;;;;;24.00;49.89;101535.88;5070028;28;45535;-68
2022/07/26 08:25:46;;;;;;;;;0.00;0.00;;;;;24.00;50.08;101535.88;5076229;27;46366;-68
2022/07/26 08:28:11;;;;;;;;;2.00;1.00;;;;;24.07;49.22;101540.75;5059301;28;46246;-68
2022/07/26 08:30:37;;;;;;;;;0.00;0.00;;;;;24.07;49.21;101538.03;5077676;27;45477;-68
2022/07/26 08:33:02;;;;;;;;;3.33;3.33;;;;;24.11;49.55;101537.63;5077157;27;45438;-68
2022/07/26 08:35:28;;;;;;;;;1.00;1.00;;;;;24.16;49.17;101534.50;5077162;27;46302;-68
2022/07/26 08:37:54;;;;;;;;;1.00;1.00;;;;;24.17;49.18;101541.69;5077151;27;45399;-68
2022/07/26 08:40:20;;;;;;;;;1.00;1.00;;;;;24.16;49.24;101539.94;5087344;27;45447;-68
2022/07/26 08:42:53;;;;;;;;;1.00;1.00;;;;;24.18;48.88;101544.25;5082079;27;45516;-68
2022/07/26 08:45:26;;;;;;;;;2.33;1.33;;;;;24.19;48.71;101547.88;5098225;27;45501;-68
2022/07/26 08:47:52;;;;;;;;;3.67;2.00;;;;;24.13;48.60;101534.78;5077090;27;45465;-68
2022/07/26 08:50:18;;;;;;;;;1.33;1.33;;;;;24.11;48.89;101532.19;5058548;28;45542;-68
2022/07/26 08:52:44;;;;;;;;;1.33;1.33;;;;;24.16;48.55;101539.94;5077561;27;45597;-68
2022/07/26 08:55:10;;;;;;;;;2.00;2.00;;;;;24.18;49.27;101544.25;5079003;27;46236;-68
2022/07/26 08:57:35;;;;;;;;;1.00;1.00;;;;;24.20;48.86;101547.72;5089393;27;45520;-68
2022/07/26 09:00:13;;;;;;;;;2.00;1.00;;;;;24.21;49.06;101541.28;5082240;27;45447;-68
2022/07/26 09:02:40;;;;;;;;;3.00;1.33;;;;;24.22;49.19;101543.00;5077218;27;45390;-68
2022/07/26 09:05:06;;;;;;;;;2.00;1.00;;;;;24.22;48.82;101544.88;5076961;27;47248;-68
2022/07/26 09:07:33;;;;;;;;;2.67;1.00;;;;;24.21;48.56;101540.44;5082386;27;45477;-68
2022/07/26 09:10:09;;;;;;;;;2.00;2.00;;;;;24.28;48.83;101548.88;5067279;27;45485;-68
2022/07/26 09:12:36;;;;;;;;;1.00;1.00;;;;;24.33;48.23;101554.81;5077850;27;45547;-80
2022/07/26 09:15:04;;;;;;;;;2.00;2.00;;;;;24.35;48.46;101561.84;5076513;27;45390;-80
2022/07/26 09:17:41;;;;;;;;;3.00;3.00;;;;;24.39;47.95;101560.56;5090761;27;46892;-81
2022/07/26 09:20:10;;;;;;;;;3.00;1.00;;;;;24.41;47.77;101555.84;5066463;28;45433;-80
2022/07/26 09:22:59;;;;;;;;;1.00;1.00;;;;;24.44;48.16;101552.84;5080874;27;45403;-80
2022/07/26 09:25:27;;;;;;;;;1.00;1.00;;;;;24.54;47.36;101557.50;5059196;28;48395;-80
2022/07/26 09:27:53;;;;;;;;;1.67;1.67;;;;;24.49;47.90;101548.88;5076407;27;45419;-80
2022/07/26 09:30:19;;;;;;;;;1.00;1.00;;;;;24.53;47.43;101559.34;5075288;27;45501;-81
2022/07/26 09:33:00;;;;;;;;;1.00;1.00;;;;;24.57;47.83;101562.69;5076914;27;45503;-80
2022/07/26 09:35:27;;;;;;;;;2.67;1.00;;;;;24.59;46.98;101558.81;5076277;27;47113;-80
2022/07/26 09:37:53;;;;;;;;;1.67;1.67;;;;;24.66;46.69;101559.13;5076374;27;45418;-80
2022/07/26 09:40:18;;;;;;;;;2.33;2.33;;;;;24.69;46.02;101560.72;5076629;27;45561;-80
2022/07/26 09:42:56;;;;;;;;;0.67;0.67;;;;;24.81;45.81;101567.75;5055810;27;45504;-80
2022/07/26 09:45:22;;;;;;;;;2.00;2.00;;;;;24.86;45.40;101565.47;5096524;27;47163;-80
2022/07/26 09:47:48;;;;;;;;;1.00;1.00;;;;;24.91;45.40;101568.66;5076178;27;45403;-80
2022/07/26 09:50:16;;;;;;;;;0.00;0.00;;;;;24.98;45.05;101571.66;5076366;27;45499;-80
2022/07/26 09:52:58;;;;;;;;;0.00;0.00;;;;;25.05;44.50;101560.06;5076827;27;45392;-80
2022/07/26 09:55:24;;;;;;;;;1.67;1.67;;;;;25.00;44.71;101537.78;5076008;27;45426;-80
2022/07/26 09:57:50;;;;;;;;;1.00;1.00;;;;;25.25;44.70;101571.03;5076801;27;45367;-80
2022/07/26 10:00:16;;;;;;;;;1.00;1.00;;;;;25.30;43.67;101556.97;5080289;27;45413;-80
2022/07/26 10:02:41;;;;;;;;;1.00;1.00;;;;;25.43;43.43;101566.59;5049050;27;45359;-80
2022/07/26 10:05:07;;;;;;;;;1.00;1.00;;;;;25.57;42.82;101573.47;5081674;27;45376;-80
2022/07/26 10:07:33;;;;;;;;;2.00;0.33;;;;;25.68;42.05;101548.75;5075386;27;45474;-81
2022/07/26 10:10:11;;;;;;;;;0.50;0.25;;;;;25.97;41.96;101566.97;5076465;27;45476;-80
2022/07/26 10:12:37;;;;;;;;;2.00;2.00;;;;;26.02;41.51;101558.34;5076427;27;45493;-81
2022/07/26 10:15:03;;;;;;;;;1.00;1.00;;;;;26.16;41.12;101565.19;5075518;27;47037;-80
2022/07/26 10:17:28;;;;;;;;;2.00;1.00;;;;;26.29;40.54;101579.38;5079091;27;45533;-80
2022/07/26 10:20:00;;;;;;;;;0.33;0.33;;;;;26.35;40.09;101567.00;5086925;27;45452;-80
2022/07/26 10:22:29;;;;;;;;;0.75;0.75;;;;;26.36;40.31;101572.28;5076064;27;45439;-81
2022/07/26 10:24:56;;;;;;;;;1.50;1.50;;;;;26.33;39.88;101561.66;5075798;27;47118;-81
2022/07/26 10:27:41;;;;;;;;;0.67;0.67;;;;;26.29;40.12;101573.91;5075516;27;45670;-80
2022/07/26 10:30:16;;;;;;;;;1.00;1.00;;;;;26.28;39.74;101566.72;5076276;27;45738;-81
2022/07/26 10:32:44;;;;;;;;;0.00;0.00;;;;;26.30;39.92;101570.19;5075857;27;45566;-81
2022/07/26 10:35:29;;;;;;;;;0.00;0.00;;;;;26.35;40.20;101573.31;5075728;27;46716;-81
2022/07/26 10:37:59;;;;;;;;;1.00;0.00;;;;;26.39;39.58;101560.22;5057396;28;45474;-81
2022/07/26 10:40:28;;;;;;;;;0.00;0.00;;;;;26.53;38.81;101567.94;5057375;28;45380;-81
2022/07/26 10:43:05;;;;;;;;;2.00;0.67;;;;;26.50;38.94;101560.91;5078835;27;45414;-81
2022/07/26 10:45:30;;;;;;;;;0.00;0.00;;;;;26.61;38.27;101564.47;5096606;27;46348;-80
2022/07/26 10:48:11;;;;;;;;;0.67;0.67;;;;;26.55;38.26;101557.75;5057211;28;45557;-80
2022/07/26 10:50:38;;;;;;;;;1.00;1.00;;;;;26.58;38.43;101560.16;5075746;28;45336;-81
2022/07/26 10:53:04;;;;;;;;;0.67;0.67;;;;;26.55;38.13;101574.16;5075867;27;45552;-81
2022/07/26 10:55:29;;;;;;;;;0.33;0.33;;;;;26.58;38.56;101567.50;5075807;27;47150;-81
2022/07/26 10:57:54;;;;;;;;;2.00;0.33;;;;;26.62;38.41;101568.91;5080560;27;45776;-81
2022/07/26 11:00:24;;;;;;;;;0.33;0.33;;;;;26.67;38.51;101570.19;5096625;27;45814;-81
2022/07/26 11:02:58;;;;;;;;;2.00;2.00;;;;;26.73;37.61;101565.97;5079306;27;45490;-81
2022/07/26 11:05:29;;;;;;;;;1.00;1.00;;;;;26.86;36.93;101571.09;5078669;27;46054;-81
2022/07/26 11:08:17;;;;;;;;;2.00;2.00;;;;;27.03;37.55;101567.50;5061100;28;45478;-81
2022/07/26 11:10:45;;;;;;;;;0.00;0.00;;;;;27.10;36.72;101571.34;5079291;27;45446;-81
2022/07/26 11:13:14;;;;;;;;;0.00;0.00;;;;;27.01;35.98;101566.81;5089668;27;45475;-82
2022/07/26 11:15:47;;;;;;;;;0.00;0.00;;;;;26.88;36.95;101567.19;5063230;27;45725;-81
2022/07/26 11:18:25;;;;;;;;;2.00;1.00;;;;;26.76;37.21;101568.38;5060342;28;45430;-81
2022/07/26 11:20:53;;;;;;;;;0.00;0.00;;;;;26.67;37.54;101564.72;5093196;27;45457;-81
2022/07/26 11:23:31;;;;;;;;;3.00;1.00;;;;;26.55;37.94;101567.78;5079444;27;45647;-81
2022/07/26 11:26:03;;;;;;;;;0.25;0.25;;;;;26.45;37.93;101562.34;5078453;27;47732;-81